sensor_id;sensor_type;location;lat;lon;timestamp;temperature;humidity
83596;HTU21D;73564;45.026;38.952;2024-03-22T00:02:05;5.54;72.54
83596;HTU21D;73564;45.026;38.952;2024-03-22T00:04:31;5.51;72.68
83596;HTU21D;73564;45.026;38.952;2024-03-22T00:06:57;5.48;72.41
83596;HTU21D;73564;45.026;38.952;2024-03-22T00:09:23;5.37;72.37
83596;HTU21D;73564;45.026;38.952;2024-03-22T00:11:48;5.24;72.95
83596;HTU21D;73564;45.026;38.952;2024-03-22T00:14:14;5.18;73.19
83596;HTU21D;73564;45.026;38.952;2024-03-22T00:16:40;5.20;73.19
83596;HTU21D;73564;45.026;38.952;2024-03-22T00:19:05;5.17;73.77
83596;HTU21D;73564;45.026;38.952;2024-03-22T00:21:31;5.16;73.61
83596;HTU21D;73564;45.026;38.952;2024-03-22T00:23:57;5.19;73.25
83596;HTU21D;73564;45.026;38.952;2024-03-22T00:26:23;5.18;73.90
83596;HTU21D;73564;45.026;38.952;2024-03-22T00:28:49;5.33;74.16
83596;HTU21D;73564;45.026;38.952;2024-03-22T00:31:16;5.36;73.69
83596;HTU21D;73564;45.026;38.952;2024-03-22T00:33:42;5.37;73.75
83596;HTU21D;73564;45.026;38.952;2024-03-22T00:36:08;5.39;73.15
83596;HTU21D;73564;45.026;38.952;2024-03-22T00:38:34;5.39;73.28
83596;HTU21D;73564;45.026;38.952;2024-03-22T00:41:00;5.34;73.54
83596;HTU21D;73564;45.026;38.952;2024-03-22T00:43:25;5.34;73.50
83596;HTU21D;73564;45.026;38.952;2024-03-22T00:45:51;5.28;73.57
83596;HTU21D;73564;45.026;38.952;2024-03-22T00:48:17;5.27;74.02
83596;HTU21D;73564;45.026;38.952;2024-03-22T00:50:43;5.38;75.79
83596;HTU21D;73564;45.026;38.952;2024-03-22T00:53:09;5.64;74.76
83596;HTU21D;73564;45.026;38.952;2024-03-22T00:55:36;5.76;74.15
83596;HTU21D;73564;45.026;38.952;2024-03-22T00:58:01;5.90;75.10
83596;HTU21D;73564;45.026;38.952;2024-03-22T01:00:27;6.01;74.20
83596;HTU21D;73564;45.026;38.952;2024-03-22T01:02:53;6.05;74.09
83596;HTU21D;73564;45.026;38.952;2024-03-22T01:05:19;6.07;73.38
83596;HTU21D;73564;45.026;38.952;2024-03-22T01:07:44;6.09;73.86
83596;HTU21D;73564;45.026;38.952;2024-03-22T01:10:11;6.07;73.61
83596;HTU21D;73564;45.026;38.952;2024-03-22T01:12:37;6.04;73.61
83596;HTU21D;73564;45.026;38.952;2024-03-22T01:15:05;5.99;74.02
83596;HTU21D;73564;45.026;38.952;2024-03-22T01:17:31;6.02;75.14
83596;HTU21D;73564;45.026;38.952;2024-03-22T01:19:57;6.12;73.92
83596;HTU21D;73564;45.026;38.952;2024-03-22T01:22:22;6.07;73.22
83596;HTU21D;73564;45.026;38.952;2024-03-22T01:24:49;5.91;73.44
83596;HTU21D;73564;45.026;38.952;2024-03-22T01:27:14;5.81;73.54
83596;HTU21D;73564;45.026;38.952;2024-03-22T01:29:40;5.76;73.68
83596;HTU21D;73564;45.026;38.952;2024-03-22T01:32:06;5.64;74.09
83596;HTU21D;73564;45.026;38.952;2024-03-22T01:34:32;5.59;73.96
83596;HTU21D;73564;45.026;38.952;2024-03-22T01:36:58;5.51;74.12
83596;HTU21D;73564;45.026;38.952;2024-03-22T01:39:24;5.46;74.28
83596;HTU21D;73564;45.026;38.952;2024-03-22T01:41:50;5.41;74.47
83596;HTU21D;73564;45.026;38.952;2024-03-22T01:44:17;5.38;74.48
83596;HTU21D;73564;45.026;38.952;2024-03-22T01:46:44;5.33;74.57
83596;HTU21D;73564;45.026;38.952;2024-03-22T01:49:15;5.31;74.57
83596;HTU21D;73564;45.026;38.952;2024-03-22T01:51:42;5.32;75.33
83596;HTU21D;73564;45.026;38.952;2024-03-22T01:54:11;5.33;75.11
83596;HTU21D;73564;45.026;38.952;2024-03-22T01:56:37;5.31;74.75
83596;HTU21D;73564;45.026;38.952;2024-03-22T01:59:07;5.19;74.56
83596;HTU21D;73564;45.026;38.952;2024-03-22T02:01:33;5.12;75.00
83596;HTU21D;73564;45.026;38.952;2024-03-22T02:04:01;5.10;75.27
83596;HTU21D;73564;45.026;38.952;2024-03-22T02:06:26;5.18;75.59
83596;HTU21D;73564;45.026;38.952;2024-03-22T02:08:52;5.19;75.04
83596;HTU21D;73564;45.026;38.952;2024-03-22T02:11:18;5.20;75.38
83596;HTU21D;73564;45.026;38.952;2024-03-22T02:13:44;5.21;76.95
83596;HTU21D;73564;45.026;38.952;2024-03-22T02:16:10;5.32;75.79
83596;HTU21D;73564;45.026;38.952;2024-03-22T02:18:36;5.39;75.71
83596;HTU21D;73564;45.026;38.952;2024-03-22T02:21:02;5.40;76.22
83596;HTU21D;73564;45.026;38.952;2024-03-22T02:23:38;5.43;75.21
83596;HTU21D;73564;45.026;38.952;2024-03-22T02:26:04;5.38;75.83
83596;HTU21D;73564;45.026;38.952;2024-03-22T02:28:31;5.41;75.33
83596;HTU21D;73564;45.026;38.952;2024-03-22T02:30:58;5.38;76.60
83596;HTU21D;73564;45.026;38.952;2024-03-22T02:33:24;5.45;75.69
83596;HTU21D;73564;45.026;38.952;2024-03-22T02:35:50;5.43;75.53
83596;HTU21D;73564;45.026;38.952;2024-03-22T02:38:17;5.36;75.67
83596;HTU21D;73564;45.026;38.952;2024-03-22T02:40:43;5.31;75.66
83596;HTU21D;73564;45.026;38.952;2024-03-22T02:43:09;5.18;75.73
83596;HTU21D;73564;45.026;38.952;2024-03-22T02:45:35;5.11;76.44
83596;HTU21D;73564;45.026;38.952;2024-03-22T02:48:01;5.12;76.22
83596;HTU21D;73564;45.026;38.952;2024-03-22T02:50:26;5.11;76.15
83596;HTU21D;73564;45.026;38.952;2024-03-22T02:52:52;5.09;76.36
83596;HTU21D;73564;45.026;38.952;2024-03-22T02:55:18;5.05;76.11
83596;HTU21D;73564;45.026;38.952;2024-03-22T02:57:44;5.03;76.48
83596;HTU21D;73564;45.026;38.952;2024-03-22T03:00:10;5.03;76.28
83596;HTU21D;73564;45.026;38.952;2024-03-22T03:02:36;5.01;78.18
83596;HTU21D;73564;45.026;38.952;2024-03-22T03:05:02;5.13;77.02
83596;HTU21D;73564;45.026;38.952;2024-03-22T03:07:27;5.23;77.12
83596;HTU21D;73564;45.026;38.952;2024-03-22T03:09:53;5.28;76.37
83596;HTU21D;73564;45.026;38.952;2024-03-22T03:12:19;5.30;76.01
83596;HTU21D;73564;45.026;38.952;2024-03-22T03:14:45;5.25;76.31
83596;HTU21D;73564;45.026;38.952;2024-03-22T03:17:11;5.25;76.01
83596;HTU21D;73564;45.026;38.952;2024-03-22T03:19:36;5.20;76.82
83596;HTU21D;73564;45.026;38.952;2024-03-22T03:22:02;5.22;76.31
83596;HTU21D;73564;45.026;38.952;2024-03-22T03:24:28;5.21;76.64
83596;HTU21D;73564;45.026;38.952;2024-03-22T03:26:54;5.24;76.40
83596;HTU21D;73564;45.026;38.952;2024-03-22T03:29:20;5.23;76.70
83596;HTU21D;73564;45.026;38.952;2024-03-22T03:31:46;5.23;76.21
83596;HTU21D;73564;45.026;38.952;2024-03-22T03:34:11;5.18;76.21
83596;HTU21D;73564;45.026;38.952;2024-03-22T03:36:37;5.15;78.50
83596;HTU21D;73564;45.026;38.952;2024-03-22T03:39:03;5.32;77.15
83596;HTU21D;73564;45.026;38.952;2024-03-22T03:41:29;5.43;77.19
83596;HTU21D;73564;45.026;38.952;2024-03-22T03:43:55;5.53;76.41
83596;HTU21D;73564;45.026;38.952;2024-03-22T03:46:21;5.59;76.89
83596;HTU21D;73564;45.026;38.952;2024-03-22T03:48:47;5.66;81.86
83596;HTU21D;73564;45.026;38.952;2024-03-22T03:51:12;5.94;81.12
83596;HTU21D;73564;45.026;38.952;2024-03-22T03:53:38;6.23;77.80
83596;HTU21D;73564;45.026;38.952;2024-03-22T03:56:04;6.27;76.29
83596;HTU21D;73564;45.026;38.952;2024-03-22T03:58:30;6.23;75.81
83596;HTU21D;73564;45.026;38.952;2024-03-22T04:00:55;6.24;76.47
83596;HTU21D;73564;45.026;38.952;2024-03-22T04:03:21;6.25;75.83
83596;HTU21D;73564;45.026;38.952;2024-03-22T04:05:56;6.26;78.92
83596;HTU21D;73564;45.026;38.952;2024-03-22T04:08:22;6.34;76.63
83596;HTU21D;73564;45.026;38.952;2024-03-22T04:10:54;6.40;76.33
83596;HTU21D;73564;45.026;38.952;2024-03-22T04:13:27;6.38;75.77
83596;HTU21D;73564;45.026;38.952;2024-03-22T04:15:53;6.44;76.79
83596;HTU21D;73564;45.026;38.952;2024-03-22T04:18:19;6.45;74.57
83596;HTU21D;73564;45.026;38.952;2024-03-22T04:20:58;6.33;75.69
83596;HTU21D;73564;45.026;38.952;2024-03-22T04:23:25;6.24;75.57
83596;HTU21D;73564;45.026;38.952;2024-03-22T04:26:01;6.30;77.80
83596;HTU21D;73564;45.026;38.952;2024-03-22T04:28:27;6.40;76.37
83596;HTU21D;73564;45.026;38.952;2024-03-22T04:31:05;6.51;78.98
83596;HTU21D;73564;45.026;38.952;2024-03-22T04:33:32;6.61;76.05
83596;HTU21D;73564;45.026;38.952;2024-03-22T04:35:59;6.70;75.40
83596;HTU21D;73564;45.026;38.952;2024-03-22T04:38:26;6.67;75.18
83596;HTU21D;73564;45.026;38.952;2024-03-22T04:40:52;6.59;74.35
83596;HTU21D;73564;45.026;38.952;2024-03-22T04:43:19;6.42;73.98
83596;HTU21D;73564;45.026;38.952;2024-03-22T04:45:45;6.27;74.95
83596;HTU21D;73564;45.026;38.952;2024-03-22T04:48:18;6.20;74.75
83596;HTU21D;73564;45.026;38.952;2024-03-22T04:50:45;6.13;75.01
83596;HTU21D;73564;45.026;38.952;2024-03-22T04:53:11;6.10;75.95
83596;HTU21D;73564;45.026;38.952;2024-03-22T04:55:36;6.12;75.09
83596;HTU21D;73564;45.026;38.952;2024-03-22T04:58:03;6.12;75.15
83596;HTU21D;73564;45.026;38.952;2024-03-22T05:00:29;6.14;74.67
83596;HTU21D;73564;45.026;38.952;2024-03-22T05:02:55;6.12;76.28
83596;HTU21D;73564;45.026;38.952;2024-03-22T05:05:21;6.21;75.96
83596;HTU21D;73564;45.026;38.952;2024-03-22T05:07:47;6.30;76.02
83596;HTU21D;73564;45.026;38.952;2024-03-22T05:10:13;6.39;76.65
83596;HTU21D;73564;45.026;38.952;2024-03-22T05:12:39;6.51;76.36
83596;HTU21D;73564;45.026;38.952;2024-03-22T05:15:06;6.64;75.01
83596;HTU21D;73564;45.026;38.952;2024-03-22T05:17:32;6.57;73.98
83596;HTU21D;73564;45.026;38.952;2024-03-22T05:19:59;6.46;74.98
83596;HTU21D;73564;45.026;38.952;2024-03-22T05:22:24;6.45;75.06
83596;HTU21D;73564;45.026;38.952;2024-03-22T05:24:50;6.57;76.12
83596;HTU21D;73564;45.026;38.952;2024-03-22T05:27:17;6.67;75.12
83596;HTU21D;73564;45.026;38.952;2024-03-22T05:29:43;6.69;74.57
83596;HTU21D;73564;45.026;38.952;2024-03-22T05:32:09;6.66;75.50
83596;HTU21D;73564;45.026;38.952;2024-03-22T05:34:34;6.71;75.28
83596;HTU21D;73564;45.026;38.952;2024-03-22T05:37:01;6.73;74.25
83596;HTU21D;73564;45.026;38.952;2024-03-22T05:39:27;6.75;75.18
83596;HTU21D;73564;45.026;38.952;2024-03-22T05:41:53;6.78;74.08
83596;HTU21D;73564;45.026;38.952;2024-03-22T05:44:24;6.76;74.19
83596;HTU21D;73564;45.026;38.952;2024-03-22T05:46:49;6.78;75.00
83596;HTU21D;73564;45.026;38.952;2024-03-22T05:49:16;6.82;74.35
83596;HTU21D;73564;45.026;38.952;2024-03-22T05:51:42;6.87;75.34
83596;HTU21D;73564;45.026;38.952;2024-03-22T05:54:08;6.98;74.44
83596;HTU21D;73564;45.026;38.952;2024-03-22T05:56:34;7.00;74.33
83596;HTU21D;73564;45.026;38.952;2024-03-22T05:58:59;7.05;75.30
83596;HTU21D;73564;45.026;38.952;2024-03-22T06:01:25;7.23;74.50
83596;HTU21D;73564;45.026;38.952;2024-03-22T06:03:51;7.25;74.15
83596;HTU21D;73564;45.026;38.952;2024-03-22T06:06:17;7.32;74.86
83596;HTU21D;73564;45.026;38.952;2024-03-22T06:08:42;7.39;73.64
83596;HTU21D;73564;45.026;38.952;2024-03-22T06:11:11;7.31;73.07
83596;HTU21D;73564;45.026;38.952;2024-03-22T06:13:37;7.25;73.41
83596;HTU21D;73564;45.026;38.952;2024-03-22T06:16:03;7.25;73.78
83596;HTU21D;73564;45.026;38.952;2024-03-22T06:18:29;7.29;73.98
83596;HTU21D;73564;45.026;38.952;2024-03-22T06:20:55;7.27;74.02
83596;HTU21D;73564;45.026;38.952;2024-03-22T06:23:21;7.37;75.26
83596;HTU21D;73564;45.026;38.952;2024-03-22T06:25:54;7.55;74.35
83596;HTU21D;73564;45.026;38.952;2024-03-22T06:28:21;7.69;75.14
83596;HTU21D;73564;45.026;38.952;2024-03-22T06:30:47;7.89;74.48
83596;HTU21D;73564;45.026;38.952;2024-03-22T06:33:13;8.06;73.64
83596;HTU21D;73564;45.026;38.952;2024-03-22T06:35:39;8.15;72.97
83596;HTU21D;73564;45.026;38.952;2024-03-22T06:38:04;8.17;72.53
83596;HTU21D;73564;45.026;38.952;2024-03-22T06:40:31;8.17;73.54
83596;HTU21D;73564;45.026;38.952;2024-03-22T06:42:57;8.30;72.98
83596;HTU21D;73564;45.026;38.952;2024-03-22T06:45:22;8.36;72.35
83596;HTU21D;73564;45.026;38.952;2024-03-22T06:47:48;8.31;72.14
83596;HTU21D;73564;45.026;38.952;2024-03-22T06:50:14;8.22;71.87
83596;HTU21D;73564;45.026;38.952;2024-03-22T06:52:39;8.13;72.63
83596;HTU21D;73564;45.026;38.952;2024-03-22T06:55:05;8.12;72.54
83596;HTU21D;73564;45.026;38.952;2024-03-22T06:57:32;8.22;73.18
83596;HTU21D;73564;45.026;38.952;2024-03-22T06:59:59;8.31;73.00
83596;HTU21D;73564;45.026;38.952;2024-03-22T07:02:26;8.45;73.19
83596;HTU21D;73564;45.026;38.952;2024-03-22T07:04:51;8.57;72.67
83596;HTU21D;73564;45.026;38.952;2024-03-22T07:07:18;8.62;72.71
83596;HTU21D;73564;45.026;38.952;2024-03-22T07:09:44;8.74;72.94
83596;HTU21D;73564;45.026;38.952;2024-03-22T07:12:11;8.80;70.45
83596;HTU21D;73564;45.026;38.952;2024-03-22T07:14:36;8.83;72.13
83596;HTU21D;73564;45.026;38.952;2024-03-22T07:17:02;8.89;71.88
83596;HTU21D;73564;45.026;38.952;2024-03-22T07:19:28;8.97;71.81
83596;HTU21D;73564;45.026;38.952;2024-03-22T07:21:54;9.01;71.29
83596;HTU21D;73564;45.026;38.952;2024-03-22T07:24:20;9.01;71.19
83596;HTU21D;73564;45.026;38.952;2024-03-22T07:26:49;9.09;71.87
83596;HTU21D;73564;45.026;38.952;2024-03-22T07:29:15;9.11;70.42
83596;HTU21D;73564;45.026;38.952;2024-03-22T07:31:41;8.95;70.25
83596;HTU21D;73564;45.026;38.952;2024-03-22T07:34:06;8.75;70.04
83596;HTU21D;73564;45.026;38.952;2024-03-22T07:36:37;8.55;70.48
83596;HTU21D;73564;45.026;38.952;2024-03-22T07:39:03;8.34;70.49
83596;HTU21D;73564;45.026;38.952;2024-03-22T07:41:32;8.14;71.38
83596;HTU21D;73564;45.026;38.952;2024-03-22T07:43:59;8.07;71.44
83596;HTU21D;73564;45.026;38.952;2024-03-22T07:46:26;7.98;71.52
83596;HTU21D;73564;45.026;38.952;2024-03-22T07:48:52;7.82;71.74
83596;HTU21D;73564;45.026;38.952;2024-03-22T07:51:19;7.71;72.03
83596;HTU21D;73564;45.026;38.952;2024-03-22T07:53:44;7.58;72.48
83596;HTU21D;73564;45.026;38.952;2024-03-22T07:56:11;7.50;72.87
83596;HTU21D;73564;45.026;38.952;2024-03-22T07:58:37;7.52;72.93
83596;HTU21D;73564;45.026;38.952;2024-03-22T08:01:03;7.48;73.54
83596;HTU21D;73564;45.026;38.952;2024-03-22T08:03:29;7.54;73.85
83596;HTU21D;73564;45.026;38.952;2024-03-22T08:05:54;7.62;73.05
83596;HTU21D;73564;45.026;38.952;2024-03-22T08:08:20;7.64;72.93
83596;HTU21D;73564;45.026;38.952;2024-03-22T08:10:46;7.60;72.86
83596;HTU21D;73564;45.026;38.952;2024-03-22T08:13:12;7.56;73.00
83596;HTU21D;73564;45.026;38.952;2024-03-22T08:15:37;7.50;73.25
83596;HTU21D;73564;45.026;38.952;2024-03-22T08:18:03;7.52;73.35
83596;HTU21D;73564;45.026;38.952;2024-03-22T08:20:29;7.54;73.35
83596;HTU21D;73564;45.026;38.952;2024-03-22T08:22:55;7.57;73.38
83596;HTU21D;73564;45.026;38.952;2024-03-22T08:25:22;7.65;73.56
83596;HTU21D;73564;45.026;38.952;2024-03-22T08:27:50;7.69;73.86
83596;HTU21D;73564;45.026;38.952;2024-03-22T08:30:15;7.76;73.70
83596;HTU21D;73564;45.026;38.952;2024-03-22T08:32:41;7.85;73.02
83596;HTU21D;73564;45.026;38.952;2024-03-22T08:35:07;7.85;72.62
83596;HTU21D;73564;45.026;38.952;2024-03-22T08:37:33;7.87;72.61
83596;HTU21D;73564;45.026;38.952;2024-03-22T08:39:59;7.83;72.48
83596;HTU21D;73564;45.026;38.952;2024-03-22T08:42:25;7.79;72.51
83596;HTU21D;73564;45.026;38.952;2024-03-22T08:44:51;7.73;72.41
83596;HTU21D;73564;45.026;38.952;2024-03-22T08:47:16;7.72;73.04
83596;HTU21D;73564;45.026;38.952;2024-03-22T08:49:42;7.77;72.31
83596;HTU21D;73564;45.026;38.952;2024-03-22T08:52:10;7.71;72.32
83596;HTU21D;73564;45.026;38.952;2024-03-22T08:54:35;7.68;72.66
83596;HTU21D;73564;45.026;38.952;2024-03-22T08:57:01;7.63;72.51
83596;HTU21D;73564;45.026;38.952;2024-03-22T08:59:27;7.63;72.70
83596;HTU21D;73564;45.026;38.952;2024-03-22T09:01:53;7.57;72.77
83596;HTU21D;73564;45.026;38.952;2024-03-22T09:04:19;7.56;72.70
83596;HTU21D;73564;45.026;38.952;2024-03-22T09:06:45;7.50;72.93
83596;HTU21D;73564;45.026;38.952;2024-03-22T09:09:11;7.53;72.89
83596;HTU21D;73564;45.026;38.952;2024-03-22T09:11:37;7.49;72.90
83596;HTU21D;73564;45.026;38.952;2024-03-22T09:14:03;7.52;72.90
83596;HTU21D;73564;45.026;38.952;2024-03-22T09:16:29;7.52;72.83
83596;HTU21D;73564;45.026;38.952;2024-03-22T09:18:54;7.46;72.73
83596;HTU21D;73564;45.026;38.952;2024-03-22T09:21:20;7.43;73.01
83596;HTU21D;73564;45.026;38.952;2024-03-22T09:23:46;7.40;73.38
83596;HTU21D;73564;45.026;38.952;2024-03-22T09:26:12;7.44;73.13
83596;HTU21D;73564;45.026;38.952;2024-03-22T09:28:37;7.44;73.02
83596;HTU21D;73564;45.026;38.952;2024-03-22T09:31:07;7.45;73.21
83596;HTU21D;73564;45.026;38.952;2024-03-22T09:33:36;7.48;73.05
83596;HTU21D;73564;45.026;38.952;2024-03-22T09:36:02;7.47;72.95
83596;HTU21D;73564;45.026;38.952;2024-03-22T09:38:28;7.44;72.99
83596;HTU21D;73564;45.026;38.952;2024-03-22T09:40:54;7.44;73.09
83596;HTU21D;73564;45.026;38.952;2024-03-22T09:43:21;7.47;73.14
83596;HTU21D;73564;45.026;38.952;2024-03-22T09:45:48;7.50;73.03
83596;HTU21D;73564;45.026;38.952;2024-03-22T09:48:17;7.54;72.78
83596;HTU21D;73564;45.026;38.952;2024-03-22T09:50:44;7.49;72.79
83596;HTU21D;73564;45.026;38.952;2024-03-22T09:53:12;7.49;72.87
83596;HTU21D;73564;45.026;38.952;2024-03-22T09:55:38;7.42;73.05
83596;HTU21D;73564;45.026;38.952;2024-03-22T09:58:10;7.40;73.21
83596;HTU21D;73564;45.026;38.952;2024-03-22T10:00:35;7.37;73.22
83596;HTU21D;73564;45.026;38.952;2024-03-22T10:03:01;7.34;73.30
83596;HTU21D;73564;45.026;38.952;2024-03-22T10:05:29;7.32;73.37
83596;HTU21D;73564;45.026;38.952;2024-03-22T10:07:55;7.35;73.50
83596;HTU21D;73564;45.026;38.952;2024-03-22T10:10:21;7.40;73.43
83596;HTU21D;73564;45.026;38.952;2024-03-22T10:12:47;7.48;73.51
83596;HTU21D;73564;45.026;38.952;2024-03-22T10:15:13;7.55;73.38
83596;HTU21D;73564;45.026;38.952;2024-03-22T10:17:39;7.57;72.84
83596;HTU21D;73564;45.026;38.952;2024-03-22T10:20:06;7.52;72.95
83596;HTU21D;73564;45.026;38.952;2024-03-22T10:22:58;7.45;73.01
83596;HTU21D;73564;45.026;38.952;2024-03-22T10:25:28;7.47;73.11
83596;HTU21D;73564;45.026;38.952;2024-03-22T10:27:55;7.44;73.23
83596;HTU21D;73564;45.026;38.952;2024-03-22T10:30:22;7.43;73.32
83596;HTU21D;73564;45.026;38.952;2024-03-22T10:32:50;7.40;73.32
83596;HTU21D;73564;45.026;38.952;2024-03-22T10:35:16;7.38;73.44
83596;HTU21D;73564;45.026;38.952;2024-03-22T10:37:42;7.39;73.51
83596;HTU21D;73564;45.026;38.952;2024-03-22T10:40:09;7.42;73.44
83596;HTU21D;73564;45.026;38.952;2024-03-22T10:42:39;7.43;73.33
83596;HTU21D;73564;45.026;38.952;2024-03-22T10:45:07;7.42;73.36
83596;HTU21D;73564;45.026;38.952;2024-03-22T10:47:34;7.39;73.71
83596;HTU21D;73564;45.026;38.952;2024-03-22T10:50:05;7.39;73.57
83596;HTU21D;73564;45.026;38.952;2024-03-22T10:52:59;7.38;73.44
83596;HTU21D;73564;45.026;38.952;2024-03-22T10:55:33;7.30;73.72
83596;HTU21D;73564;45.026;38.952;2024-03-22T10:57:59;7.30;73.53
83596;HTU21D;73564;45.026;38.952;2024-03-22T11:00:35;7.30;73.80
83596;HTU21D;73564;45.026;38.952;2024-03-22T11:03:02;7.32;73.62
83596;HTU21D;73564;45.026;38.952;2024-03-22T11:05:28;7.37;73.61
83596;HTU21D;73564;45.026;38.952;2024-03-22T11:08:04;7.39;73.59
83596;HTU21D;73564;45.026;38.952;2024-03-22T11:10:33;7.41;73.54
83596;HTU21D;73564;45.026;38.952;2024-03-22T11:13:05;7.42;73.31
83596;HTU21D;73564;45.026;38.952;2024-03-22T11:15:33;7.35;73.31
83596;HTU21D;73564;45.026;38.952;2024-03-22T11:17:59;7.32;73.57
83596;HTU21D;73564;45.026;38.952;2024-03-22T11:20:26;7.35;73.88
83596;HTU21D;73564;45.026;38.952;2024-03-22T11:22:52;7.41;73.44
83596;HTU21D;73564;45.026;38.952;2024-03-22T11:25:18;7.39;73.49
83596;HTU21D;73564;45.026;38.952;2024-03-22T11:27:48;7.39;73.40
83596;HTU21D;73564;45.026;38.952;2024-03-22T11:30:15;7.40;73.41
83596;HTU21D;73564;45.026;38.952;2024-03-22T11:32:41;7.38;73.42
83596;HTU21D;73564;45.026;38.952;2024-03-22T11:35:11;7.40;73.51
83596;HTU21D;73564;45.026;38.952;2024-03-22T11:37:41;7.39;73.38
83596;HTU21D;73564;45.026;38.952;2024-03-22T11:40:09;7.35;73.51
83596;HTU21D;73564;45.026;38.952;2024-03-22T11:42:41;7.32;73.58
83596;HTU21D;73564;45.026;38.952;2024-03-22T11:45:08;7.34;73.72
83596;HTU21D;73564;45.026;38.952;2024-03-22T11:47:35;7.41;73.67
83596;HTU21D;73564;45.026;38.952;2024-03-22T11:50:01;7.43;73.53
83596;HTU21D;73564;45.026;38.952;2024-03-22T11:52:28;7.47;74.18
83596;HTU21D;73564;45.026;38.952;2024-03-22T11:54:54;7.54;73.51
83596;HTU21D;73564;45.026;38.952;2024-03-22T11:57:21;7.61;73.21
83596;HTU21D;73564;45.026;38.952;2024-03-22T11:59:46;7.64;72.78
83596;HTU21D;73564;45.026;38.952;2024-03-22T12:02:13;7.60;72.74
83596;HTU21D;73564;45.026;38.952;2024-03-22T12:04:45;7.59;72.88
83596;HTU21D;73564;45.026;38.952;2024-03-22T12:07:16;7.60;72.97
83596;HTU21D;73564;45.026;38.952;2024-03-22T12:09:41;7.62;72.75
83596;HTU21D;73564;45.026;38.952;2024-03-22T12:12:09;7.62;72.98
83596;HTU21D;73564;45.026;38.952;2024-03-22T12:14:35;7.68;73.33
83596;HTU21D;73564;45.026;38.952;2024-03-22T12:17:05;7.78;72.96
83596;HTU21D;73564;45.026;38.952;2024-03-22T12:19:31;7.84;72.32
83596;HTU21D;73564;45.026;38.952;2024-03-22T12:21:57;7.84;72.47
83596;HTU21D;73564;45.026;38.952;2024-03-22T12:24:23;7.85;72.45
83596;HTU21D;73564;45.026;38.952;2024-03-22T12:26:50;7.89;72.35
83596;HTU21D;73564;45.026;38.952;2024-03-22T12:29:16;7.92;72.09
83596;HTU21D;73564;45.026;38.952;2024-03-22T12:31:42;7.98;72.08
83596;HTU21D;73564;45.026;38.952;2024-03-22T12:34:08;8.01;71.85
83596;HTU21D;73564;45.026;38.952;2024-03-22T12:36:34;8.04;71.54
83596;HTU21D;73564;45.026;38.952;2024-03-22T12:39:00;8.04;71.60
83596;HTU21D;73564;45.026;38.952;2024-03-22T12:41:27;8.06;72.17
83596;HTU21D;73564;45.026;38.952;2024-03-22T12:43:52;8.21;72.34
83596;HTU21D;73564;45.026;38.952;2024-03-22T12:46:18;8.35;71.26
83596;HTU21D;73564;45.026;38.952;2024-03-22T12:48:44;8.33;71.26
83596;HTU21D;73564;45.026;38.952;2024-03-22T12:51:09;8.32;71.14
83596;HTU21D;73564;45.026;38.952;2024-03-22T12:53:35;8.32;70.71
83596;HTU21D;73564;45.026;38.952;2024-03-22T12:56:01;8.27;70.86
83596;HTU21D;73564;45.026;38.952;2024-03-22T12:58:30;8.24;71.01
83596;HTU21D;73564;45.026;38.952;2024-03-22T13:00:56;8.23;70.97
83596;HTU21D;73564;45.026;38.952;2024-03-22T13:03:22;8.22;70.64
83596;HTU21D;73564;45.026;38.952;2024-03-22T13:05:48;8.18;70.81
83596;HTU21D;73564;45.026;38.952;2024-03-22T13:08:14;8.17;71.19
83596;HTU21D;73564;45.026;38.952;2024-03-22T13:10:39;8.19;71.13
83596;HTU21D;73564;45.026;38.952;2024-03-22T13:13:09;8.21;71.22
83596;HTU21D;73564;45.026;38.952;2024-03-22T13:15:35;8.23;71.10
83596;HTU21D;73564;45.026;38.952;2024-03-22T13:18:03;8.26;70.87
83596;HTU21D;73564;45.026;38.952;2024-03-22T13:20:29;8.24;70.81
83596;HTU21D;73564;45.026;38.952;2024-03-22T13:22:55;8.24;70.77
83596;HTU21D;73564;45.026;38.952;2024-03-22T13:25:26;8.24;70.76
83596;HTU21D;73564;45.026;38.952;2024-03-22T13:27:52;8.24;70.71
83596;HTU21D;73564;45.026;38.952;2024-03-22T13:30:18;8.22;70.61
83596;HTU21D;73564;45.026;38.952;2024-03-22T13:32:44;8.23;70.65
83596;HTU21D;73564;45.026;38.952;2024-03-22T13:35:10;8.23;70.73
83596;HTU21D;73564;45.026;38.952;2024-03-22T13:37:36;8.24;70.74
83596;HTU21D;73564;45.026;38.952;2024-03-22T13:40:01;8.24;70.99
83596;HTU21D;73564;45.026;38.952;2024-03-22T13:42:28;8.30;70.64
83596;HTU21D;73564;45.026;38.952;2024-03-22T13:44:55;8.31;70.67
83596;HTU21D;73564;45.026;38.952;2024-03-22T13:47:20;8.31;70.60
83596;HTU21D;73564;45.026;38.952;2024-03-22T13:49:46;8.34;70.85
83596;HTU21D;73564;45.026;38.952;2024-03-22T13:52:12;8.38;70.91
83596;HTU21D;73564;45.026;38.952;2024-03-22T13:54:38;8.45;70.32
83596;HTU21D;73564;45.026;38.952;2024-03-22T13:57:04;8.43;69.95
83596;HTU21D;73564;45.026;38.952;2024-03-22T13:59:30;8.38;69.97
83596;HTU21D;73564;45.026;38.952;2024-03-22T14:01:56;8.35;70.18
83596;HTU21D;73564;45.026;38.952;2024-03-22T14:04:23;8.35;70.16
83596;HTU21D;73564;45.026;38.952;2024-03-22T14:06:49;8.35;70.00
83596;HTU21D;73564;45.026;38.952;2024-03-22T14:09:15;8.35;69.84
83596;HTU21D;73564;45.026;38.952;2024-03-22T14:11:41;8.33;69.81
83596;HTU21D;73564;45.026;38.952;2024-03-22T14:14:11;8.32;69.87
83596;HTU21D;73564;45.026;38.952;2024-03-22T14:16:38;8.32;69.85
83596;HTU21D;73564;45.026;38.952;2024-03-22T14:19:03;8.29;69.74
83596;HTU21D;73564;45.026;38.952;2024-03-22T14:21:29;8.30;69.70
83596;HTU21D;73564;45.026;38.952;2024-03-22T14:23:55;8.29;69.61
83596;HTU21D;73564;45.026;38.952;2024-03-22T14:26:21;8.26;69.76
83596;HTU21D;73564;45.026;38.952;2024-03-22T14:28:46;8.23;69.95
83596;HTU21D;73564;45.026;38.952;2024-03-22T14:31:13;8.23;69.79
83596;HTU21D;73564;45.026;38.952;2024-03-22T14:33:39;8.21;69.88
83596;HTU21D;73564;45.026;38.952;2024-03-22T14:36:06;8.19;69.96
83596;HTU21D;73564;45.026;38.952;2024-03-22T14:38:32;8.19;70.00
83596;HTU21D;73564;45.026;38.952;2024-03-22T14:40:59;8.22;70.18
83596;HTU21D;73564;45.026;38.952;2024-03-22T14:43:26;8.22;70.10
83596;HTU21D;73564;45.026;38.952;2024-03-22T14:45:53;8.23;70.03
83596;HTU21D;73564;45.026;38.952;2024-03-22T14:48:22;8.26;69.97
83596;HTU21D;73564;45.026;38.952;2024-03-22T14:50:48;8.27;70.68
83596;HTU21D;73564;45.026;38.952;2024-03-22T14:53:14;8.33;70.00
83596;HTU21D;73564;45.026;38.952;2024-03-22T14:55:59;8.35;69.72
83596;HTU21D;73564;45.026;38.952;2024-03-22T14:58:28;8.33;69.65
83596;HTU21D;73564;45.026;38.952;2024-03-22T15:00:54;8.29;69.76
83596;HTU21D;73564;45.026;38.952;2024-03-22T15:03:21;8.29;69.60
83596;HTU21D;73564;45.026;38.952;2024-03-22T15:05:50;8.26;69.68
83596;HTU21D;73564;45.026;38.952;2024-03-22T15:08:17;8.18;69.64
83596;HTU21D;73564;45.026;38.952;2024-03-22T15:10:43;8.13;69.81
83596;HTU21D;73564;45.026;38.952;2024-03-22T15:13:09;8.09;69.90